sensor_id;sensor_type;location;lat;lon;timestamp;P1;durP1;ratioP1;P2;durP2;ratioP2
3698;SDS011;1865;50.918;7.092;2022-12-07T00:03:36;29.60;;;18.30;;
3698;SDS011;1865;50.918;7.092;2022-12-07T00:06:03;32.37;;;19.07;;
3698;SDS011;1865;50.918;7.092;2022-12-07T00:08:30;30.30;;;19.07;;
3698;SDS011;1865;50.918;7.092;2022-12-07T00:11:00;32.77;;;19.13;;
3698;SDS011;1865;50.918;7.092;2022-12-07T00:13:30;30.67;;;19.50;;
3698;SDS011;1865;50.918;7.092;2022-12-07T00:15:59;30.37;;;19.43;;
3698;SDS011;1865;50.918;7.092;2022-12-07T00:18:29;36.97;;;19.13;;
3698;SDS011;1865;50.918;7.092;2022-12-07T00:21:02;30.60;;;19.13;;
3698;SDS011;1865;50.918;7.092;2022-12-07T00:23:32;37.80;;;19.87;;
3698;SDS011;1865;50.918;7.092;2022-12-07T00:28:58;30.43;;;18.50;;
3698;SDS011;1865;50.918;7.092;2022-12-07T00:31:27;33.57;;;18.70;;
3698;SDS011;1865;50.918;7.092;2022-12-07T00:33:54;32.07;;;19.97;;
3698;SDS011;1865;50.918;7.092;2022-12-07T00:36:21;32.07;;;18.40;;
3698;SDS011;1865;50.918;7.092;2022-12-07T00:38:47;30.27;;;18.80;;
3698;SDS011;1865;50.918;7.092;2022-12-07T00:41:14;31.87;;;19.33;;
3698;SDS011;1865;50.918;7.092;2022-12-07T00:43:42;29.53;;;18.13;;
3698;SDS011;1865;50.918;7.092;2022-12-07T00:46:08;29.43;;;18.53;;
3698;SDS011;1865;50.918;7.092;2022-12-07T00:48:35;30.13;;;17.30;;
3698;SDS011;1865;50.918;7.092;2022-12-07T00:51:00;28.60;;;17.90;;
3698;SDS011;1865;50.918;7.092;2022-12-07T00:53:26;29.37;;;17.63;;
3698;SDS011;1865;50.918;7.092;2022-12-07T00:55:52;33.30;;;20.03;;
3698;SDS011;1865;50.918;7.092;2022-12-07T00:58:18;33.83;;;19.20;;
3698;SDS011;1865;50.918;7.092;2022-12-07T01:00:44;31.87;;;19.37;;
3698;SDS011;1865;50.918;7.092;2022-12-07T01:03:10;32.53;;;19.03;;
3698;SDS011;1865;50.918;7.092;2022-12-07T01:05:37;33.10;;;19.13;;
3698;SDS011;1865;50.918;7.092;2022-12-07T01:08:03;31.10;;;19.37;;
3698;SDS011;1865;50.918;7.092;2022-12-07T01:10:29;31.53;;;19.63;;
3698;SDS011;1865;50.918;7.092;2022-12-07T01:12:56;29.77;;;17.87;;
3698;SDS011;1865;50.918;7.092;2022-12-07T01:15:22;30.80;;;18.47;;
3698;SDS011;1865;50.918;7.092;2022-12-07T01:17:48;31.17;;;18.40;;
3698;SDS011;1865;50.918;7.092;2022-12-07T01:20:14;31.67;;;18.23;;
3698;SDS011;1865;50.918;7.092;2022-12-07T01:22:41;36.80;;;19.43;;
3698;SDS011;1865;50.918;7.092;2022-12-07T01:25:08;33.53;;;19.67;;
3698;SDS011;1865;50.918;7.092;2022-12-07T01:27:34;34.60;;;20.33;;
3698;SDS011;1865;50.918;7.092;2022-12-07T01:30:01;33.30;;;20.13;;
3698;SDS011;1865;50.918;7.092;2022-12-07T01:32:28;30.50;;;18.97;;
3698;SDS011;1865;50.918;7.092;2022-12-07T01:34:54;36.00;;;19.80;;
3698;SDS011;1865;50.918;7.092;2022-12-07T01:37:20;35.17;;;18.50;;
3698;SDS011;1865;50.918;7.092;2022-12-07T01:39:48;31.80;;;17.90;;
3698;SDS011;1865;50.918;7.092;2022-12-07T01:42:14;35.97;;;19.73;;
3698;SDS011;1865;50.918;7.092;2022-12-07T01:47:56;35.77;;;20.00;;
3698;SDS011;1865;50.918;7.092;2022-12-07T01:50:24;38.43;;;20.73;;
3698;SDS011;1865;50.918;7.092;2022-12-07T01:52:53;38.33;;;21.70;;
3698;SDS011;1865;50.918;7.092;2022-12-07T01:55:20;33.43;;;19.90;;
3698;SDS011;1865;50.918;7.092;2022-12-07T01:57:47;37.53;;;21.03;;
3698;SDS011;1865;50.918;7.092;2022-12-07T02:00:15;38.00;;;21.13;;
3698;SDS011;1865;50.918;7.092;2022-12-07T02:05:37;32.80;;;21.27;;
3698;SDS011;1865;50.918;7.092;2022-12-07T02:08:05;35.23;;;21.00;;
3698;SDS011;1865;50.918;7.092;2022-12-07T02:10:31;35.90;;;22.07;;
3698;SDS011;1865;50.918;7.092;2022-12-07T02:13:00;36.33;;;20.60;;
3698;SDS011;1865;50.918;7.092;2022-12-07T02:15:38;34.67;;;22.23;;
3698;SDS011;1865;50.918;7.092;2022-12-07T02:18:09;35.50;;;20.43;;
3698;SDS011;1865;50.918;7.092;2022-12-07T02:20:48;36.70;;;21.23;;
3698;SDS011;1865;50.918;7.092;2022-12-07T02:23:37;35.20;;;21.00;;
3698;SDS011;1865;50.918;7.092;2022-12-07T02:26:35;32.23;;;20.37;;
3698;SDS011;1865;50.918;7.092;2022-12-07T02:36:55;38.63;;;21.27;;
3698;SDS011;1865;50.918;7.092;2022-12-07T02:39:37;32.17;;;20.87;;
3698;SDS011;1865;50.918;7.092;2022-12-07T02:42:19;36.77;;;22.57;;
3698;SDS011;1865;50.918;7.092;2022-12-07T02:44:50;35.20;;;21.27;;
3698;SDS011;1865;50.918;7.092;2022-12-07T02:47:16;32.13;;;20.50;;
3698;SDS011;1865;50.918;7.092;2022-12-07T02:49:45;38.10;;;20.67;;
3698;SDS011;1865;50.918;7.092;2022-12-07T02:52:11;34.70;;;20.70;;
3698;SDS011;1865;50.918;7.092;2022-12-07T02:54:36;38.67;;;21.07;;
3698;SDS011;1865;50.918;7.092;2022-12-07T03:02:31;33.77;;;20.73;;
3698;SDS011;1865;50.918;7.092;2022-12-07T03:05:15;34.80;;;20.63;;
3698;SDS011;1865;50.918;7.092;2022-12-07T03:13:12;37.13;;;20.90;;
3698;SDS011;1865;50.918;7.092;2022-12-07T03:16:01;36.33;;;22.60;;
3698;SDS011;1865;50.918;7.092;2022-12-07T03:18:37;36.07;;;21.10;;
3698;SDS011;1865;50.918;7.092;2022-12-07T03:21:09;34.33;;;21.63;;
3698;SDS011;1865;50.918;7.092;2022-12-07T03:23:39;45.40;;;22.90;;
3698;SDS011;1865;50.918;7.092;2022-12-07T03:26:06;39.10;;;21.27;;
3698;SDS011;1865;50.918;7.092;2022-12-07T03:28:36;39.83;;;21.93;;
3698;SDS011;1865;50.918;7.092;2022-12-07T03:31:12;33.37;;;20.97;;
3698;SDS011;1865;50.918;7.092;2022-12-07T03:33:47;36.53;;;21.60;;
3698;SDS011;1865;50.918;7.092;2022-12-07T03:36:31;36.83;;;20.13;;
3698;SDS011;1865;50.918;7.092;2022-12-07T03:39:08;41.77;;;24.03;;
3698;SDS011;1865;50.918;7.092;2022-12-07T03:41:54;39.77;;;23.27;;
3698;SDS011;1865;50.918;7.092;2022-12-07T03:44:21;45.83;;;21.77;;
3698;SDS011;1865;50.918;7.092;2022-12-07T03:49:53;35.60;;;21.23;;
3698;SDS011;1865;50.918;7.092;2022-12-07T03:52:26;45.30;;;22.37;;
3698;SDS011;1865;50.918;7.092;2022-12-07T03:57:30;38.13;;;22.40;;
3698;SDS011;1865;50.918;7.092;2022-12-07T03:59:58;42.40;;;21.77;;
3698;SDS011;1865;50.918;7.092;2022-12-07T04:02:26;41.47;;;22.57;;
3698;SDS011;1865;50.918;7.092;2022-12-07T04:04:54;43.77;;;22.10;;
3698;SDS011;1865;50.918;7.092;2022-12-07T04:07:20;41.47;;;21.23;;
3698;SDS011;1865;50.918;7.092;2022-12-07T04:09:46;44.70;;;21.70;;
3698;SDS011;1865;50.918;7.092;2022-12-07T04:12:11;45.30;;;23.93;;
3698;SDS011;1865;50.918;7.092;2022-12-07T04:14:37;43.87;;;22.23;;
3698;SDS011;1865;50.918;7.092;2022-12-07T04:17:02;37.90;;;21.43;;
3698;SDS011;1865;50.918;7.092;2022-12-07T04:19:29;37.40;;;22.70;;
3698;SDS011;1865;50.918;7.092;2022-12-07T04:21:57;43.73;;;22.83;;
3698;SDS011;1865;50.918;7.092;2022-12-07T04:24:24;40.30;;;22.50;;
3698;SDS011;1865;50.918;7.092;2022-12-07T04:26:50;47.10;;;23.27;;
3698;SDS011;1865;50.918;7.092;2022-12-07T04:29:16;37.30;;;22.93;;
3698;SDS011;1865;50.918;7.092;2022-12-07T04:31:42;41.73;;;22.20;;
3698;SDS011;1865;50.918;7.092;2022-12-07T04:34:08;43.13;;;22.10;;
3698;SDS011;1865;50.918;7.092;2022-12-07T04:36:35;42.30;;;24.60;;
3698;SDS011;1865;50.918;7.092;2022-12-07T04:39:01;35.20;;;22.60;;
3698;SDS011;1865;50.918;7.092;2022-12-07T04:41:27;50.33;;;23.20;;
3698;SDS011;1865;50.918;7.092;2022-12-07T04:44:00;34.17;;;20.80;;
3698;SDS011;1865;50.918;7.092;2022-12-07T04:46:28;44.00;;;22.57;;
3698;SDS011;1865;50.918;7.092;2022-12-07T04:48:55;38.07;;;22.00;;
3698;SDS011;1865;50.918;7.092;2022-12-07T04:51:24;44.50;;;22.70;;
3698;SDS011;1865;50.918;7.092;2022-12-07T04:53:51;44.90;;;22.60;;
3698;SDS011;1865;50.918;7.092;2022-12-07T04:56:17;40.50;;;22.03;;
3698;SDS011;1865;50.918;7.092;2022-12-07T04:58:44;41.60;;;22.30;;
3698;SDS011;1865;50.918;7.092;2022-12-07T05:01:11;41.17;;;22.13;;
3698;SDS011;1865;50.918;7.092;2022-12-07T05:03:37;38.10;;;21.87;;
3698;SDS011;1865;50.918;7.092;2022-12-07T05:06:03;39.93;;;21.10;;
3698;SDS011;1865;50.918;7.092;2022-12-07T05:08:30;39.67;;;22.63;;
3698;SDS011;1865;50.918;7.092;2022-12-07T05:10:56;36.57;;;21.10;;
3698;SDS011;1865;50.918;7.092;2022-12-07T05:13:22;41.83;;;23.17;;
3698;SDS011;1865;50.918;7.092;2022-12-07T05:15:47;37.57;;;21.60;;
3698;SDS011;1865;50.918;7.092;2022-12-07T05:18:13;40.17;;;21.73;;
3698;SDS011;1865;50.918;7.092;2022-12-07T05:20:39;42.60;;;22.67;;
3698;SDS011;1865;50.918;7.092;2022-12-07T05:23:05;46.67;;;22.83;;
3698;SDS011;1865;50.918;7.092;2022-12-07T05:25:31;36.20;;;21.33;;
3698;SDS011;1865;50.918;7.092;2022-12-07T05:27:57;38.33;;;21.10;;
3698;SDS011;1865;50.918;7.092;2022-12-07T05:30:23;34.30;;;20.50;;
3698;SDS011;1865;50.918;7.092;2022-12-07T05:32:49;35.40;;;21.03;;
3698;SDS011;1865;50.918;7.092;2022-12-07T05:35:15;41.70;;;22.23;;
3698;SDS011;1865;50.918;7.092;2022-12-07T05:37:41;41.90;;;22.20;;
3698;SDS011;1865;50.918;7.092;2022-12-07T05:40:07;37.93;;;20.60;;
3698;SDS011;1865;50.918;7.092;2022-12-07T05:42:33;41.70;;;21.00;;
3698;SDS011;1865;50.918;7.092;2022-12-07T05:44:59;42.40;;;22.40;;
3698;SDS011;1865;50.918;7.092;2022-12-07T05:47:24;38.37;;;20.47;;
3698;SDS011;1865;50.918;7.092;2022-12-07T05:49:50;35.27;;;20.93;;
3698;SDS011;1865;50.918;7.092;2022-12-07T05:52:15;43.17;;;21.73;;
3698;SDS011;1865;50.918;7.092;2022-12-07T05:54:41;37.10;;;21.47;;
3698;SDS011;1865;50.918;7.092;2022-12-07T05:57:06;38.17;;;22.10;;
3698;SDS011;1865;50.918;7.092;2022-12-07T05:59:32;42.57;;;22.20;;
3698;SDS011;1865;50.918;7.092;2022-12-07T06:02:08;33.40;;;19.93;;
3698;SDS011;1865;50.918;7.092;2022-12-07T06:04:37;37.77;;;20.43;;
3698;SDS011;1865;50.918;7.092;2022-12-07T06:07:05;37.03;;;19.73;;
3698;SDS011;1865;50.918;7.092;2022-12-07T06:09:31;42.53;;;20.70;;
3698;SDS011;1865;50.918;7.092;2022-12-07T06:11:57;32.67;;;20.30;;
3698;SDS011;1865;50.918;7.092;2022-12-07T06:14:41;40.50;;;21.33;;
3698;SDS011;1865;50.918;7.092;2022-12-07T06:17:07;37.03;;;20.23;;
3698;SDS011;1865;50.918;7.092;2022-12-07T06:19:33;32.00;;;19.17;;
3698;SDS011;1865;50.918;7.092;2022-12-07T06:21:58;32.13;;;18.77;;
3698;SDS011;1865;50.918;7.092;2022-12-07T06:24:24;33.63;;;18.47;;
3698;SDS011;1865;50.918;7.092;2022-12-07T06:26:50;45.53;;;20.20;;
3698;SDS011;1865;50.918;7.092;2022-12-07T06:29:16;34.93;;;18.83;;
3698;SDS011;1865;50.918;7.092;2022-12-07T06:31:43;40.03;;;19.00;;
3698;SDS011;1865;50.918;7.092;2022-12-07T06:34:09;27.17;;;16.97;;
3698;SDS011;1865;50.918;7.092;2022-12-07T06:36:37;32.23;;;18.10;;
3698;SDS011;1865;50.918;7.092;2022-12-07T06:39:03;35.87;;;17.20;;
3698;SDS011;1865;50.918;7.092;2022-12-07T06:41:30;40.07;;;18.23;;
3698;SDS011;1865;50.918;7.092;2022-12-07T06:43:56;30.60;;;17.50;;
3698;SDS011;1865;50.918;7.092;2022-12-07T06:46:21;29.67;;;16.93;;
3698;SDS011;1865;50.918;7.092;2022-12-07T06:48:47;32.33;;;18.40;;
3698;SDS011;1865;50.918;7.092;2022-12-07T06:51:12;30.73;;;16.43;;
3698;SDS011;1865;50.918;7.092;2022-12-07T06:53:38;31.43;;;17.93;;
3698;SDS011;1865;50.918;7.092;2022-12-07T06:56:04;30.33;;;17.00;;
3698;SDS011;1865;50.918;7.092;2022-12-07T06:58:30;29.37;;;16.53;;
3698;SDS011;1865;50.918;7.092;2022-12-07T07:00:55;32.90;;;18.63;;
3698;SDS011;1865;50.918;7.092;2022-12-07T07:03:21;34.97;;;18.73;;
3698;SDS011;1865;50.918;7.092;2022-12-07T07:05:46;32.27;;;18.70;;
3698;SDS011;1865;50.918;7.092;2022-12-07T07:08:12;31.90;;;19.33;;
3698;SDS011;1865;50.918;7.092;2022-12-07T07:10:38;31.50;;;19.50;;
3698;SDS011;1865;50.918;7.092;2022-12-07T07:13:05;44.70;;;20.60;;
3698;SDS011;1865;50.918;7.092;2022-12-07T07:15:31;33.43;;;18.87;;
3698;SDS011;1865;50.918;7.092;2022-12-07T07:17:57;30.70;;;18.83;;
3698;SDS011;1865;50.918;7.092;2022-12-07T07:20:23;35.53;;;19.60;;
3698;SDS011;1865;50.918;7.092;2022-12-07T07:22:49;33.10;;;17.47;;
3698;SDS011;1865;50.918;7.092;2022-12-07T07:25:15;28.13;;;16.90;;
3698;SDS011;1865;50.918;7.092;2022-12-07T07:27:41;34.63;;;17.93;;
3698;SDS011;1865;50.918;7.092;2022-12-07T07:30:07;34.37;;;17.77;;
3698;SDS011;1865;50.918;7.092;2022-12-07T07:32:33;35.27;;;18.40;;
3698;SDS011;1865;50.918;7.092;2022-12-07T07:34:59;33.10;;;18.20;;
3698;SDS011;1865;50.918;7.092;2022-12-07T07:37:24;35.30;;;19.53;;
3698;SDS011;1865;50.918;7.092;2022-12-07T07:39:50;30.43;;;16.90;;
3698;SDS011;1865;50.918;7.092;2022-12-07T07:42:16;29.80;;;18.40;;
3698;SDS011;1865;50.918;7.092;2022-12-07T07:44:41;26.30;;;16.93;;
3698;SDS011;1865;50.918;7.092;2022-12-07T07:47:07;39.10;;;20.30;;
3698;SDS011;1865;50.918;7.092;2022-12-07T07:49:32;31.00;;;18.10;;
3698;SDS011;1865;50.918;7.092;2022-12-07T07:51:58;30.50;;;19.23;;
3698;SDS011;1865;50.918;7.092;2022-12-07T07:54:23;43.50;;;20.20;;
3698;SDS011;1865;50.918;7.092;2022-12-07T07:56:49;40.60;;;20.60;;
3698;SDS011;1865;50.918;7.092;2022-12-07T07:59:15;36.93;;;20.50;;
3698;SDS011;1865;50.918;7.092;2022-12-07T08:01:40;38.47;;;23.33;;
3698;SDS011;1865;50.918;7.092;2022-12-07T08:04:06;47.77;;;23.53;;
3698;SDS011;1865;50.918;7.092;2022-12-07T08:06:31;41.00;;;23.03;;
3698;SDS011;1865;50.918;7.092;2022-12-07T08:08:57;48.83;;;22.80;;
3698;SDS011;1865;50.918;7.092;2022-12-07T08:11:23;44.00;;;21.77;;
3698;SDS011;1865;50.918;7.092;2022-12-07T08:13:49;41.43;;;21.80;;
3698;SDS011;1865;50.918;7.092;2022-12-07T08:16:14;38.07;;;21.93;;
3698;SDS011;1865;50.918;7.092;2022-12-07T08:18:40;35.37;;;19.83;;
3698;SDS011;1865;50.918;7.092;2022-12-07T08:21:07;37.87;;;21.33;;
3698;SDS011;1865;50.918;7.092;2022-12-07T08:23:36;38.63;;;19.23;;
3698;SDS011;1865;50.918;7.092;2022-12-07T08:26:03;40.33;;;19.97;;
3698;SDS011;1865;50.918;7.092;2022-12-07T08:28:30;34.90;;;20.37;;
3698;SDS011;1865;50.918;7.092;2022-12-07T08:31:03;47.43;;;21.17;;
3698;SDS011;1865;50.918;7.092;2022-12-07T08:33:30;39.30;;;20.53;;
3698;SDS011;1865;50.918;7.092;2022-12-07T08:36:03;40.43;;;19.57;;
3698;SDS011;1865;50.918;7.092;2022-12-07T08:38:30;41.97;;;20.47;;
3698;SDS011;1865;50.918;7.092;2022-12-07T08:40:56;40.10;;;21.43;;
3698;SDS011;1865;50.918;7.092;2022-12-07T08:43:23;36.97;;;21.47;;
3698;SDS011;1865;50.918;7.092;2022-12-07T08:45:51;44.17;;;20.60;;
3698;SDS011;1865;50.918;7.092;2022-12-07T08:48:41;37.33;;;20.40;;
3698;SDS011;1865;50.918;7.092;2022-12-07T08:51:13;35.60;;;21.73;;
3698;SDS011;1865;50.918;7.092;2022-12-07T08:53:39;35.97;;;21.57;;
3698;SDS011;1865;50.918;7.092;2022-12-07T08:59:28;36.93;;;21.17;;
3698;SDS011;1865;50.918;7.092;2022-12-07T09:01:54;40.90;;;19.83;;
3698;SDS011;1865;50.918;7.092;2022-12-07T09:04:20;30.07;;;18.97;;
3698;SDS011;1865;50.918;7.092;2022-12-07T09:06:45;35.07;;;18.97;;
3698;SDS011;1865;50.918;7.092;2022-12-07T09:09:11;30.30;;;17.63;;
3698;SDS011;1865;50.918;7.092;2022-12-07T09:11:38;33.97;;;16.83;;
3698;SDS011;1865;50.918;7.092;2022-12-07T09:14:04;35.93;;;17.83;;
3698;SDS011;1865;50.918;7.092;2022-12-07T09:16:30;33.90;;;16.90;;
3698;SDS011;1865;50.918;7.092;2022-12-07T09:18:55;32.97;;;17.53;;
3698;SDS011;1865;50.918;7.092;2022-12-07T09:21:21;27.33;;;16.10;;
3698;SDS011;1865;50.918;7.092;2022-12-07T09:23:47;24.40;;;16.53;;
3698;SDS011;1865;50.918;7.092;2022-12-07T09:26:12;27.60;;;16.93;;
3698;SDS011;1865;50.918;7.092;2022-12-07T09:28:38;29.43;;;16.30;;
3698;SDS011;1865;50.918;7.092;2022-12-07T09:31:04;36.43;;;17.60;;
3698;SDS011;1865;50.918;7.092;2022-12-07T09:33:29;28.57;;;17.40;;
3698;SDS011;1865;50.918;7.092;2022-12-07T09:35:55;33.13;;;15.77;;
3698;SDS011;1865;50.918;7.092;2022-12-07T09:38:20;27.90;;;16.53;;
3698;SDS011;1865;50.918;7.092;2022-12-07T09:40:46;26.40;;;15.83;;
3698;SDS011;1865;50.918;7.092;2022-12-07T09:43:16;28.67;;;15.47;;
3698;SDS011;1865;50.918;7.092;2022-12-07T09:45:47;29.77;;;16.97;;
3698;SDS011;1865;50.918;7.092;2022-12-07T09:48:34;27.20;;;16.00;;
3698;SDS011;1865;50.918;7.092;2022-12-07T09:51:03;30.23;;;14.97;;
3698;SDS011;1865;50.918;7.092;2022-12-07T09:53:41;29.93;;;14.23;;
3698;SDS011;1865;50.918;7.092;2022-12-07T09:56:08;22.70;;;13.27;;
3698;SDS011;1865;50.918;7.092;2022-12-07T09:58:37;31.70;;;15.27;;
3698;SDS011;1865;50.918;7.092;2022-12-07T10:01:11;22.23;;;12.37;;
3698;SDS011;1865;50.918;7.092;2022-12-07T10:03:40;22.33;;;13.40;;
3698;SDS011;1865;50.918;7.092;2022-12-07T10:06:12;24.83;;;14.00;;
3698;SDS011;1865;50.918;7.092;2022-12-07T10:08:38;28.47;;;15.10;;
3698;SDS011;1865;50.918;7.092;2022-12-07T10:11:06;26.93;;;12.30;;
3698;SDS011;1865;50.918;7.092;2022-12-07T10:16:04;29.37;;;12.40;;
3698;SDS011;1865;50.918;7.092;2022-12-07T10:18:31;27.93;;;12.90;;
3698;SDS011;1865;50.918;7.092;2022-12-07T10:21:19;20.80;;;12.47;;
3698;SDS011;1865;50.918;7.092;2022-12-07T10:24:31;21.20;;;11.90;;
3698;SDS011;1865;50.918;7.092;2022-12-07T10:34:45;18.33;;;10.10;;
3698;SDS011;1865;50.918;7.092;2022-12-07T10:42:30;18.30;;;9.60;;
3698;SDS011;1865;50.918;7.092;2022-12-07T10:45:07;16.27;;;8.13;;
3698;SDS011;1865;50.918;7.092;2022-12-07T10:47:55;19.53;;;8.90;;
3698;SDS011;1865;50.918;7.092;2022-12-07T10:50:47;23.57;;;8.70;;
3698;SDS011;1865;50.918;7.092;2022-12-07T10:53:33;17.90;;;8.43;;
3698;SDS011;1865;50.918;7.092;2022-12-07T10:59:04;19.27;;;8.80;;
3698;SDS011;1865;50.918;7.092;2022-12-07T11:02:20;19.30;;;8.07;;
3698;SDS011;1865;50.918;7.092;2022-12-07T11:05:12;22.60;;;8.50;;
3698;SDS011;1865;50.918;7.092;2022-12-07T11:08:00;21.20;;;8.40;;
3698;SDS011;1865;50.918;7.092;2022-12-07T11:10:41;20.73;;;8.90;;
3698;SDS011;1865;50.918;7.092;2022-12-07T11:13:22;20.70;;;8.00;;
3698;SDS011;1865;50.918;7.092;2022-12-07T11:16:21;20.07;;;8.40;;
3698;SDS011;1865;50.918;7.092;2022-12-07T11:21:55;23.27;;;9.60;;
3698;SDS011;1865;50.918;7.092;2022-12-07T11:32:52;20.83;;;8.80;;
3698;SDS011;1865;50.918;7.092;2022-12-07T11:38:08;21.33;;;8.80;;
3698;SDS011;1865;50.918;7.092;2022-12-07T11:40:44;20.77;;;8.63;;
3698;SDS011;1865;50.918;7.092;2022-12-07T11:45:50;21.80;;;8.00;;
3698;SDS011;1865;50.918;7.092;2022-12-07T11:48:40;18.83;;;7.47;;
3698;SDS011;1865;50.918;7.092;2022-12-07T11:51:10;17.80;;;7.23;;
3698;SDS011;1865;50.918;7.092;2022-12-07T11:53:53;21.90;;;7.03;;
3698;SDS011;1865;50.918;7.092;2022-12-07T11:56:25;17.77;;;7.40;;
3698;SDS011;1865;50.918;7.092;2022-12-07T12:01:52;15.03;;;6.23;;
3698;SDS011;1865;50.918;7.092;2022-12-07T12:04:29;16.00;;;7.53;;
3698;SDS011;1865;50.918;7.092;2022-12-07T12:07:15;19.43;;;6.77;;
3698;SDS011;1865;50.918;7.092;2022-12-07T12:09:50;17.93;;;6.47;;
3698;SDS011;1865;50.918;7.092;2022-12-07T12:15:40;18.67;;;6.90;;
3698;SDS011;1865;50.918;7.092;2022-12-07T12:23:23;12.93;;;5.10;;
3698;SDS011;1865;50.918;7.092;2022-12-07T12:26:02;16.23;;;6.17;;
3698;SDS011;1865;50.918;7.092;2022-12-07T12:28:38;22.70;;;6.70;;
3698;SDS011;1865;50.918;7.092;2022-12-07T12:31:14;16.33;;;6.53;;
3698;SDS011;1865;50.918;7.092;2022-12-07T12:33:56;13.83;;;6.03;;
3698;SDS011;1865;50.918;7.092;2022-12-07T12:46:58;18.53;;;8.20;;
3698;SDS011;1865;50.918;7.092;2022-12-07T12:51:54;18.83;;;7.33;;
3698;SDS011;1865;50.918;7.092;2022-12-07T12:54:25;17.43;;;7.27;;
3698;SDS011;1865;50.918;7.092;2022-12-07T13:04:54;22.00;;;9.17;;
3698;SDS011;1865;50.918;7.092;2022-12-07T13:15:36;23.63;;;9.70;;
3698;SDS011;1865;50.918;7.092;2022-12-07T13:18:23;23.83;;;9.27;;
3698;SDS011;1865;50.918;7.092;2022-12-07T13:34:00;17.97;;;7.40;;
3698;SDS011;1865;50.918;7.092;2022-12-07T13:36:48;15.00;;;6.97;;
3698;SDS011;1865;50.918;7.092;2022-12-07T13:41:44;15.40;;;6.83;;
3698;SDS011;1865;50.918;7.092;2022-12-07T13:44:15;23.17;;;6.60;;
3698;SDS011;1865;50.918;7.092;2022-12-07T13:46:44;25.23;;;7.50;;
3698;SDS011;1865;50.918;7.092;2022-12-07T13:51:51;20.53;;;6.67;;
3698;SDS011;1865;50.918;7.092;2022-12-07T13:54:17;23.03;;;7.20;;
3698;SDS011;1865;50.918;7.092;2022-12-07T13:56:46;17.47;;;7.30;;
3698;SDS011;1865;50.918;7.092;2022-12-07T13:59:16;18.43;;;7.53;;
3698;SDS011;1865;50.918;7.092;2022-12-07T14:01:47;17.83;;;7.63;;
3698;SDS011;1865;50.918;7.092;2022-12-07T14:04:17;17.87;;;6.97;;
3698;SDS011;1865;50.918;7.092;2022-12-07T14:06:56;18.70;;;7.90;;
3698;SDS011;1865;50.918;7.092;2022-12-07T14:09:23;23.13;;;9.23;;
3698;SDS011;1865;50.918;7.092;2022-12-07T14:11:51;19.07;;;8.50;;
3698;SDS011;1865;50.918;7.092;2022-12-07T14:14:20;15.80;;;8.30;;
3698;SDS011;1865;50.918;7.092;2022-12-07T14:22:09;22.67;;;8.83;;
3698;SDS011;1865;50.918;7.092;2022-12-07T14:25:00;27.03;;;8.50;;
3698;SDS011;1865;50.918;7.092;2022-12-07T14:27:32;22.23;;;9.87;;
3698;SDS011;1865;50.918;7.092;2022-12-07T14:30:01;16.60;;;8.47;;
3698;SDS011;1865;50.918;7.092;2022-12-07T14:32:28;27.50;;;7.70;;
3698;SDS011;1865;50.918;7.092;2022-12-07T14:34:59;24.33;;;8.40;;
3698;SDS011;1865;50.918;7.092;2022-12-07T14:37:36;22.27;;;7.40;;
3698;SDS011;1865;50.918;7.092;2022-12-07T14:40:03;17.30;;;7.93;;
3698;SDS011;1865;50.918;7.092;2022-12-07T14:42:29;15.33;;;7.20;;
3698;SDS011;1865;50.918;7.092;2022-12-07T14:44:56;24.23;;;7.70;;
3698;SDS011;1865;50.918;7.092;2022-12-07T14:47:23;23.13;;;9.97;;
3698;SDS011;1865;50.918;7.092;2022-12-07T14:49:52;17.37;;;6.80;;
3698;SDS011;1865;50.918;7.092;2022-12-07T14:52:20;18.37;;;7.40;;
3698;SDS011;1865;50.918;7.092;2022-12-07T14:54:49;20.53;;;7.00;;
3698;SDS011;1865;50.918;7.092;2022-12-07T14:57:15;16.47;;;7.40;;
3698;SDS011;1865;50.918;7.092;2022-12-07T14:59:40;18.00;;;7.77;;
3698;SDS011;1865;50.918;7.092;2022-12-07T15:02:06;18.67;;;7.00;;
3698;SDS011;1865;50.918;7.092;2022-12-07T15:04:34;17.43;;;9.00;;
3698;SDS011;1865;50.918;7.092;2022-12-07T15:07:01;18.83;;;7.70;;
3698;SDS011;1865;50.918;7.092;2022-12-07T15:09:28;19.60;;;9.07;;
3698;SDS011;1865;50.918;7.092;2022-12-07T15:11:53;18.97;;;8.53;;
3698;SDS011;1865;50.918;7.092;2022-12-07T15:14:19;18.50;;;7.70;;
3698;SDS011;1865;50.918;7.092;2022-12-07T15:16:44;18.73;;;8.53;;
3698;SDS011;1865;50.918;7.092;2022-12-07T15:19:11;18.80;;;9.70;;
3698;SDS011;1865;50.918;7.092;2022-12-07T15:21:38;29.97;;;9.93;;
3698;SDS011;1865;50.918;7.092;2022-12-07T15:24:05;15.33;;;9.00;;
3698;SDS011;1865;50.918;7.092;2022-12-07T15:26:30;20.43;;;8.83;;
3698;SDS011;1865;50.918;7.092;2022-12-07T15:28:56;25.13;;;9.80;;
3698;SDS011;1865;50.918;7.092;2022-12-07T15:31:23;16.77;;;8.60;;
3698;SDS011;1865;50.918;7.092;2022-12-07T15:33:48;15.90;;;9.03;;
3698;SDS011;1865;50.918;7.092;2022-12-07T15:36:21;18.40;;;9.53;;
3698;SDS011;1865;50.918;7.092;2022-12-07T15:38:49;27.90;;;10.00;;
3698;SDS011;1865;50.918;7.092;2022-12-07T15:41:14;16.50;;;8.63;;
3698;SDS011;1865;50.918;7.092;2022-12-07T15:43:40;24.83;;;10.00;;
3698;SDS011;1865;50.918;7.092;2022-12-07T15:46:31;16.43;;;7.50;;
3698;SDS011;1865;50.918;7.092;2022-12-07T15:48:58;15.47;;;6.37;;
3698;SDS011;1865;50.918;7.092;2022-12-07T15:51:24;12.90;;;7.70;;
3698;SDS011;1865;50.918;7.092;2022-12-07T15:53:51;15.27;;;7.80;;
3698;SDS011;1865;50.918;7.092;2022-12-07T15:56:16;18.07;;;7.80;;
3698;SDS011;1865;50.918;7.092;2022-12-07T15:58:42;15.10;;;7.60;;
3698;SDS011;1865;50.918;7.092;2022-12-07T16:01:11;23.23;;;7.87;;
3698;SDS011;1865;50.918;7.092;2022-12-07T16:03:37;12.43;;;6.63;;
3698;SDS011;1865;50.918;7.092;2022-12-07T16:06:03;14.30;;;6.67;;
3698;SDS011;1865;50.918;7.092;2022-12-07T16:08:29;18.70;;;5.80;;
3698;SDS011;1865;50.918;7.092;2022-12-07T16:10:54;17.57;;;8.20;;
3698;SDS011;1865;50.918;7.092;2022-12-07T16:13:20;20.33;;;8.27;;
3698;SDS011;1865;50.918;7.092;2022-12-07T16:15:46;16.50;;;7.83;;
3698;SDS011;1865;50.918;7.092;2022-12-07T16:18:13;18.03;;;6.80;;
3698;SDS011;1865;50.918;7.092;2022-12-07T16:20:38;20.17;;;7.73;;
3698;SDS011;1865;50.918;7.092;2022-12-07T16:23:05;20.07;;;8.17;;
3698;SDS011;1865;50.918;7.092;2022-12-07T16:25:30;19.37;;;9.40;;
3698;SDS011;1865;50.918;7.092;2022-12-07T16:27:56;23.00;;;9.37;;
3698;SDS011;1865;50.918;7.092;2022-12-07T16:30:21;15.37;;;7.00;;
3698;SDS011;1865;50.918;7.092;2022-12-07T16:32:47;15.17;;;7.30;;
3698;SDS011;1865;50.918;7.092;2022-12-07T16:35:12;17.80;;;7.23;;
3698;SDS011;1865;50.918;7.092;2022-12-07T16:37:38;17.33;;;7.20;;
3698;SDS011;1865;50.918;7.092;2022-12-07T16:40:06;15.10;;;6.70;;
3698;SDS011;1865;50.918;7.092;2022-12-07T16:42:33;14.23;;;7.67;;
3698;SDS011;1865;50.918;7.092;2022-12-07T16:44:59;24.70;;;11.90;;
3698;SDS011;1865;50.918;7.092;2022-12-07T16:47:25;23.97;;;12.13;;
3698;SDS011;1865;50.918;7.092;2022-12-07T16:49:51;24.13;;;10.80;;
3698;SDS011;1865;50.918;7.092;2022-12-07T16:52:17;22.93;;;11.37;;
3698;SDS011;1865;50.918;7.092;2022-12-07T16:54:43;20.47;;;10.13;;
3698;SDS011;1865;50.918;7.092;2022-12-07T16:57:09;16.47;;;8.53;;
3698;SDS011;1865;50.918;7.092;2022-12-07T16:59:35;17.73;;;8.73;;
3698;SDS011;1865;50.918;7.092;2022-12-07T17:02:00;16.07;;;8.83;;
3698;SDS011;1865;50.918;7.092;2022-12-07T17:04:26;15.20;;;7.93;;
3698;SDS011;1865;50.918;7.092;2022-12-07T17:06:51;18.07;;;9.73;;
3698;SDS011;1865;50.918;7.092;2022-12-07T17:09:17;25.17;;;11.90;;
3698;SDS011;1865;50.918;7.092;2022-12-07T17:11:43;26.13;;;11.87;;
3698;SDS011;1865;50.918;7.092;2022-12-07T17:14:09;22.47;;;9.73;;
3698;SDS011;1865;50.918;7.092;2022-12-07T17:16:54;24.17;;;9.80;;
3698;SDS011;1865;50.918;7.092;2022-12-07T17:19:19;24.07;;;10.47;;
3698;SDS011;1865;50.918;7.092;2022-12-07T17:21:46;18.20;;;10.90;;
3698;SDS011;1865;50.918;7.092;2022-12-07T17:24:14;15.47;;;9.43;;